Time;durP1;ratioP1;P1;durP2;ratioP2;P2;SDS_P1;SDS_P2;PMS_P1;PMS_P2;Temp;Humidity;BMP_temperature;BMP_pressure;BME280_temperature;BME280_humidity;BME280_pressure;Samples;Min_cycle;Max_cycle;Signal;HPM_P1;HPM_P2
2023/11/08 00:01:05;;;;;;;0.90;0.60;;;20.90;56.80;;;;;;5019960;28;20030;-69
2023/11/08 00:03:30;;;;;;;0.70;0.60;;;20.90;56.80;;;;;;5018817;28;20037;-69
2023/11/08 00:05:56;;;;;;;0.95;0.60;;;20.90;56.80;;;;;;5022037;28;20061;-69
2023/11/08 00:08:21;;;;;;;1.05;0.80;;;20.90;56.80;;;;;;5003927;28;20418;-69
2023/11/08 00:10:49;;;;;;;1.05;0.65;;;20.90;56.80;;;;;;5019347;28;20335;-69
2023/11/08 00:13:20;;;;;;;1.00;0.70;;;20.90;56.80;;;;;;5019864;28;20021;-69
2023/11/08 00:15:46;;;;;;;0.85;0.60;;;20.80;56.80;;;;;;5020417;28;20404;-69
2023/11/08 00:18:11;;;;;;;0.68;0.50;;;20.80;56.80;;;;;;5015029;28;21132;-69
2023/11/08 00:20:37;;;;;;;1.33;0.70;;;20.80;56.80;;;;;;5022852;28;20038;-69
2023/11/08 00:23:03;;;;;;;0.68;0.60;;;20.80;56.80;;;;;;5021924;28;20163;-69
2023/11/08 00:25:29;;;;;;;0.82;0.63;;;20.80;56.70;;;;;;5019950;28;20045;-69
2023/11/08 00:27:54;;;;;;;0.68;0.50;;;20.80;56.80;;;;;;5021889;28;20497;-69
2023/11/08 00:30:20;;;;;;;0.88;0.60;;;20.80;56.80;;;;;;5021268;28;20014;-69
2023/11/08 00:32:46;;;;;;;0.70;0.70;;;20.80;56.80;;;;;;5019761;28;20413;-69
2023/11/08 00:35:12;;;;;;;1.23;0.70;;;20.80;56.80;;;;;;5020320;28;20117;-69
2023/11/08 00:37:37;;;;;;;1.13;0.80;;;20.80;56.80;;;;;;5036314;28;20021;-69
2023/11/08 00:40:04;;;;;;;1.02;0.68;;;20.80;56.80;;;;;;5018444;28;20096;-69
2023/11/08 00:42:30;;;;;;;1.35;0.70;;;20.80;56.70;;;;;;5021961;28;20036;-69
2023/11/08 00:44:56;;;;;;;1.13;0.60;;;20.80;56.80;;;;;;5021997;28;20398;-69
2023/11/08 00:47:23;;;;;;;1.42;0.70;;;20.70;56.70;;;;;;5019700;28;20144;-69
2023/11/08 00:49:49;;;;;;;0.80;0.60;;;20.70;56.70;;;;;;5018871;28;20117;-69
2023/11/08 00:52:16;;;;;;;0.82;0.70;;;20.70;56.70;;;;;;5020305;28;20101;-69
2023/11/08 00:54:42;;;;;;;0.90;0.70;;;20.70;56.70;;;;;;5019495;28;20474;-69
2023/11/08 00:57:08;;;;;;;1.08;0.73;;;20.70;56.70;;;;;;5020876;28;20113;-69
2023/11/08 00:59:35;;;;;;;0.88;0.68;;;20.70;56.70;;;;;;5018680;28;20025;-69
2023/11/08 01:02:01;;;;;;;0.60;0.60;;;20.70;56.70;;;;;;5021727;28;20029;-69
2023/11/08 01:04:27;;;;;;;1.10;0.70;;;20.70;56.70;;;;;;5020516;28;20033;-69
2023/11/08 01:06:52;;;;;;;0.75;0.60;;;20.70;56.70;;;;;;5021883;28;20025;-69
2023/11/08 01:09:20;;;;;;;0.80;0.60;;;20.70;56.70;;;;;;5020323;28;20014;-69
2023/11/08 01:11:46;;;;;;;0.98;0.60;;;20.70;56.80;;;;;;5037039;28;20124;-69
2023/11/08 01:14:12;;;;;;;0.75;0.60;;;20.70;56.70;;;;;;5019615;28;20073;-69
2023/11/08 01:16:37;;;;;;;0.50;0.50;;;20.60;56.70;;;;;;5021286;28;20108;-69
2023/11/08 01:19:03;;;;;;;1.35;0.73;;;20.60;56.70;;;;;;5019132;28;20028;-69
2023/11/08 01:21:29;;;;;;;1.10;0.70;;;20.60;56.70;;;;;;5018538;28;20418;-69
2023/11/08 01:23:55;;;;;;;0.60;0.60;;;20.60;56.70;;;;;;5019968;28;20039;-69
2023/11/08 01:26:20;;;;;;;1.05;0.70;;;20.60;56.80;;;;;;5019309;28;20470;-69
2023/11/08 01:28:46;;;;;;;0.85;0.60;;;20.60;56.70;;;;;;5019830;28;20111;-69
2023/11/08 01:31:12;;;;;;;0.75;0.63;;;20.60;56.70;;;;;;5019147;28;20119;-69
2023/11/08 01:33:37;;;;;;;0.60;0.50;;;20.60;56.70;;;;;;5016637;28;20486;-69
2023/11/08 01:36:04;;;;;;;0.80;0.60;;;20.60;56.80;;;;;;5019331;28;20033;-70
2023/11/08 01:38:30;;;;;;;0.60;0.60;;;20.60;56.80;;;;;;5020516;28;20470;-69
2023/11/08 01:40:56;;;;;;;0.93;0.70;;;20.60;56.70;;;;;;5018506;28;20033;-69
2023/11/08 01:43:29;;;;;;;0.75;0.60;;;20.60;56.70;;;;;;5019388;28;20033;-69
2023/11/08 01:46:09;;;;;;;0.52;0.47;;;20.60;56.80;;;;;;5019526;28;20473;-69
2023/11/08 01:48:35;;;;;;;0.80;0.60;;;20.60;56.80;;;;;;5015702;28;20084;-69
2023/11/08 01:51:06;;;;;;;0.98;0.70;;;20.50;56.70;;;;;;5019475;28;20029;-69
2023/11/08 01:53:39;;;;;;;1.40;0.77;;;20.60;56.80;;;;;;5017854;28;20443;-68
2023/11/08 01:56:06;;;;;;;0.70;0.60;;;20.50;56.70;;;;;;5019388;28;20029;-69
2023/11/08 01:58:37;;;;;;;0.68;0.68;;;20.50;56.70;;;;;;5017408;28;20397;-69
2023/11/08 02:01:07;;;;;;;0.57;0.50;;;20.50;56.70;;;;;;5017863;28;20032;-70
2023/11/08 02:03:36;;;;;;;0.60;0.60;;;20.50;56.70;;;;;;5017989;28;20099;-69
2023/11/08 02:06:03;;;;;;;0.50;0.50;;;20.50;56.70;;;;;;5018588;28;20425;-69
2023/11/08 02:08:29;;;;;;;0.80;0.60;;;20.50;56.70;;;;;;5004516;28;20056;-69
2023/11/08 02:10:56;;;;;;;0.55;0.50;;;20.50;56.70;;;;;;5017751;28;20123;-69
2023/11/08 02:13:22;;;;;;;1.08;0.70;;;20.50;56.70;;;;;;5019018;28;20113;-69
2023/11/08 02:15:48;;;;;;;1.08;0.70;;;20.50;56.80;;;;;;5019476;28;20522;-72
2023/11/08 02:18:15;;;;;;;0.68;0.60;;;20.50;56.80;;;;;;5017049;28;20021;-72
2023/11/08 02:20:41;;;;;;;1.30;0.70;;;20.50;56.80;;;;;;5015341;28;20025;-72
2023/11/08 02:23:07;;;;;;;0.88;0.60;;;20.50;56.80;;;;;;5033225;28;20022;-72
2023/11/08 02:25:33;;;;;;;0.68;0.63;;;20.50;56.80;;;;;;5018036;28;20355;-72
2023/11/08 02:27:59;;;;;;;1.13;0.73;;;20.40;56.70;;;;;;5019448;28;20486;-71
2023/11/08 02:30:25;;;;;;;0.60;0.60;;;20.50;56.80;;;;;;5018891;28;20030;-72
2023/11/08 02:32:51;;;;;;;0.75;0.60;;;20.40;56.70;;;;;;5017789;28;20032;-72
2023/11/08 02:35:17;;;;;;;0.60;0.60;;;20.50;56.80;;;;;;4999906;28;20530;-71
2023/11/08 02:37:47;;;;;;;0.85;0.52;;;20.40;56.70;;;;;;5019260;28;20034;-72
2023/11/08 02:40:13;;;;;;;0.85;0.60;;;20.40;56.70;;;;;;5018682;28;20440;-72
2023/11/08 02:42:43;;;;;;;1.02;0.60;;;20.40;56.70;;;;;;5001358;28;20065;-72
2023/11/08 02:45:09;;;;;;;0.80;0.60;;;20.40;56.80;;;;;;5018214;28;20512;-66
2023/11/08 02:47:36;;;;;;;1.35;0.68;;;20.40;56.70;;;;;;5019296;28;20033;-67
2023/11/08 02:50:02;;;;;;;0.93;0.60;;;20.40;56.80;;;;;;5016351;28;20033;-66
2023/11/08 02:52:28;;;;;;;0.55;0.47;;;20.40;56.80;;;;;;5019179;28;20030;-67
2023/11/08 02:54:53;;;;;;;0.85;0.70;;;20.40;56.80;;;;;;5019338;28;20025;-66
2023/11/08 02:57:19;;;;;;;0.98;0.70;;;20.40;56.80;;;;;;5034272;28;20038;-66
2023/11/08 02:59:46;;;;;;;0.75;0.63;;;20.40;56.80;;;;;;5019211;28;20022;-68
2023/11/08 03:02:12;;;;;;;0.63;0.55;;;20.40;56.80;;;;;;5019372;28;20490;-66
2023/11/08 03:04:38;;;;;;;0.80;0.50;;;20.40;56.80;;;;;;5018352;28;20053;-68
2023/11/08 03:07:04;;;;;;;0.88;0.63;;;20.40;56.80;;;;;;5018349;28;20485;-67
2023/11/08 03:09:30;;;;;;;1.05;0.60;;;20.30;56.70;;;;;;5018713;28;20473;-66
2023/11/08 03:11:57;;;;;;;0.50;0.50;;;20.40;56.80;;;;;;5016651;28;20021;-66
2023/11/08 03:14:26;;;;;;;0.52;0.52;;;20.30;56.70;;;;;;5015694;28;20493;-66
2023/11/08 03:16:53;;;;;;;;;;;20.40;56.80;;;;;;5001551;28;20078;-71
2023/11/08 03:19:22;;;;;;;0.60;0.50;;;20.30;56.80;;;;;;5018852;28;19909;-72
2023/11/08 03:21:48;;;;;;;0.80;0.55;;;20.30;56.80;;;;;;4998074;28;20029;-72
2023/11/08 03:24:14;;;;;;;0.65;0.60;;;20.30;56.70;;;;;;5017584;28;20041;-72
2023/11/08 03:26:40;;;;;;;0.93;0.70;;;20.30;56.80;;;;;;5015827;28;20065;-67
2023/11/08 03:29:06;;;;;;;0.82;0.50;;;20.30;56.80;;;;;;5019020;28;20191;-67
2023/11/08 03:31:32;;;;;;;1.02;0.65;;;20.30;56.80;;;;;;5021494;28;20036;-66
2023/11/08 03:33:58;;;;;;;0.82;0.60;;;20.30;56.80;;;;;;5022503;28;20084;-68
2023/11/08 03:36:25;;;;;;;0.93;0.57;;;20.30;56.80;;;;;;5020424;28;20045;-66
2023/11/08 03:38:51;;;;;;;1.08;0.60;;;20.30;56.80;;;;;;5019900;28;20116;-67
2023/11/08 03:41:16;;;;;;;0.70;0.60;;;20.30;56.80;;;;;;5019221;28;20041;-66
2023/11/08 03:43:42;;;;;;;0.98;0.70;;;20.30;56.80;;;;;;5021590;28;20456;-66
2023/11/08 03:46:08;;;;;;;0.68;0.50;;;20.30;56.80;;;;;;5021918;28;20030;-66
2023/11/08 03:48:35;;;;;;;1.00;0.60;;;20.30;56.80;;;;;;5021981;28;20026;-67
2023/11/08 03:51:02;;;;;;;0.85;0.60;;;20.30;56.80;;;;;;5015757;28;20026;-66
2023/11/08 03:53:28;;;;;;;0.52;0.50;;;20.30;56.80;;;;;;5020497;28;20022;-66
2023/11/08 03:55:54;;;;;;;0.50;0.50;;;20.30;56.80;;;;;;5023989;28;20034;-67
2023/11/08 03:58:20;;;;;;;0.60;0.57;;;20.30;56.80;;;;;;5021189;28;20068;-66
2023/11/08 04:00:45;;;;;;;0.60;0.52;;;20.20;56.80;;;;;;5022221;28;20026;-66
2023/11/08 04:03:11;;;;;;;0.90;0.60;;;20.30;56.80;;;;;;5022882;28;20506;-66
2023/11/08 04:05:37;;;;;;;0.75;0.60;;;20.20;56.80;;;;;;5019670;28;20034;-68
2023/11/08 04:08:04;;;;;;;0.52;0.47;;;20.20;56.80;;;;;;5021646;28;20029;-66
2023/11/08 04:10:29;;;;;;;1.05;0.55;;;20.20;56.80;;;;;;5022610;28;20265;-67
2023/11/08 04:12:55;;;;;;;0.60;0.50;;;20.20;56.80;;;;;;5022702;28;20030;-68
2023/11/08 04:15:20;;;;;;;0.70;0.70;;;20.20;56.80;;;;;;5020954;28;20028;-66
2023/11/08 04:17:46;;;;;;;0.50;0.50;;;20.20;56.80;;;;;;5034264;28;20477;-67
2023/11/08 04:20:12;;;;;;;0.65;0.52;;;20.20;56.80;;;;;;5019515;28;20025;-66
2023/11/08 04:22:42;;;;;;;0.60;0.60;;;20.20;56.80;;;;;;5022255;28;20432;-68
2023/11/08 04:25:11;;;;;;;0.55;0.50;;;20.20;57.00;;;;;;5020751;28;20520;-67
2023/11/08 04:27:37;;;;;;;0.85;0.55;;;20.20;56.80;;;;;;5021800;28;20048;-72
2023/11/08 04:30:03;;;;;;;0.50;0.50;;;20.20;56.80;;;;;;5023963;28;20430;-72
2023/11/08 04:32:29;;;;;;;0.60;0.60;;;20.20;56.80;;;;;;5021306;28;20014;-71
2023/11/08 04:34:55;;;;;;;0.60;0.60;;;20.20;56.80;;;;;;5019578;28;20070;-71
2023/11/08 04:37:21;;;;;;;0.68;0.50;;;20.20;56.80;;;;;;5021962;28;20504;-69
2023/11/08 04:39:49;;;;;;;0.77;0.65;;;20.20;56.80;;;;;;5021347;28;20037;-69
2023/11/08 04:42:14;;;;;;;0.70;0.60;;;20.20;56.80;;;;;;5020078;28;20069;-69
2023/11/08 04:44:47;;;;;;;0.68;0.52;;;20.20;56.80;;;;;;5018028;28;20065;-69
2023/11/08 04:47:20;;;;;;;0.85;0.60;;;20.20;56.80;;;;;;5020652;28;20482;-69
2023/11/08 04:49:47;;;;;;;0.75;0.60;;;20.20;56.80;;;;;;5017669;28;20393;-69
2023/11/08 04:52:17;;;;;;;0.80;0.60;;;20.20;56.80;;;;;;5020824;28;20432;-69
2023/11/08 04:54:44;;;;;;;0.63;0.60;;;20.20;56.80;;;;;;5022838;28;20563;-69
2023/11/08 04:57:16;;;;;;;0.68;0.50;;;20.10;56.80;;;;;;5020934;28;20025;-69
2023/11/08 04:59:46;;;;;;;0.80;0.60;;;20.10;56.80;;;;;;5020808;28;20377;-69
2023/11/08 05:02:21;;;;;;;0.50;0.50;;;20.10;56.80;;;;;;5017470;28;20481;-69
2023/11/08 05:04:48;;;;;;;0.50;0.50;;;20.20;56.80;;;;;;5018162;28;20073;-69
2023/11/08 05:07:14;;;;;;;0.52;0.50;;;20.10;56.80;;;;;;5021091;28;20361;-69
2023/11/08 05:09:41;;;;;;;0.73;0.60;;;20.10;56.80;;;;;;5020896;28;20482;-69
2023/11/08 05:12:07;;;;;;;0.50;0.50;;;20.10;56.80;;;;;;5018611;28;20561;-69
2023/11/08 05:14:33;;;;;;;0.60;0.60;;;20.10;56.80;;;;;;5017420;28;20026;-69
2023/11/08 05:17:01;;;;;;;0.75;0.50;;;20.10;56.90;;;;;;5019823;28;20496;-69
2023/11/08 05:19:27;;;;;;;0.45;0.45;;;20.10;56.90;;;;;;5020163;28;20033;-69
2023/11/08 05:21:53;;;;;;;0.50;0.50;;;20.10;56.90;;;;;;5017668;28;20053;-69
2023/11/08 05:24:19;;;;;;;0.70;0.50;;;20.10;56.90;;;;;;5000691;28;20040;-69
2023/11/08 05:26:45;;;;;;;0.88;0.60;;;20.10;56.90;;;;;;5019112;28;20030;-67
2023/11/08 05:29:11;;;;;;;0.55;0.43;;;20.10;56.90;;;;;;5017908;28;20022;-67
2023/11/08 05:31:37;;;;;;;0.50;0.40;;;20.10;56.90;;;;;;5020450;28;20080;-67
2023/11/08 05:34:03;;;;;;;0.65;0.60;;;20.10;56.90;;;;;;5018972;28;20532;-67
2023/11/08 05:36:32;;;;;;;0.95;0.50;;;20.10;56.90;;;;;;5017144;28;20049;-70
2023/11/08 05:38:58;;;;;;;0.75;0.63;;;20.10;56.90;;;;;;5019363;28;20075;-70
2023/11/08 05:41:24;;;;;;;0.60;0.60;;;20.10;56.90;;;;;;5020057;28;20030;-70
2023/11/08 05:43:58;;;;;;;0.40;0.40;;;20.00;56.90;;;;;;5019195;28;21006;-70
2023/11/08 05:46:27;;;;;;;0.50;0.50;;;20.10;57.00;;;;;;5019494;28;20067;-68
2023/11/08 05:48:57;;;;;;;1.17;0.57;;;20.00;56.90;;;;;;5003630;28;20029;-67
2023/11/08 05:51:25;;;;;;;0.40;0.40;;;20.10;57.00;;;;;;5016699;28;20051;-67
2023/11/08 05:53:51;;;;;;;0.40;0.40;;;20.10;57.00;;;;;;5019064;28;20385;-68
2023/11/08 05:56:16;;;;;;;0.68;0.55;;;20.00;56.90;;;;;;5020775;28;20053;-67
2023/11/08 05:58:42;;;;;;;0.52;0.52;;;20.00;57.00;;;;;;5020040;28;20540;-67
2023/11/08 06:01:11;;;;;;;0.40;0.40;;;20.00;57.00;;;;;;5019175;28;20086;-67
2023/11/08 06:03:37;;;;;;;0.50;0.50;;;20.00;57.00;;;;;;5019069;28;20034;-68
2023/11/08 06:06:03;;;;;;;0.90;0.50;;;20.00;57.00;;;;;;5017304;28;20370;-67
2023/11/08 06:08:28;;;;;;;0.60;0.52;;;20.00;57.00;;;;;;5020495;28;20026;-67
2023/11/08 06:10:54;;;;;;;0.57;0.57;;;20.00;57.00;;;;;;5020301;28;20022;-67
2023/11/08 06:13:20;;;;;;;0.70;0.50;;;20.00;57.00;;;;;;5019080;28;20026;-68
2023/11/08 06:15:45;;;;;;;0.50;0.50;;;20.00;57.10;;;;;;5001196;28;20018;-70
2023/11/08 06:18:11;;;;;;;0.57;0.50;;;20.00;57.10;;;;;;5018554;28;20037;-71
2023/11/08 06:20:37;;;;;;;0.65;0.60;;;20.00;57.10;;;;;;5017424;28;20588;-70
2023/11/08 06:23:03;;;;;;;0.50;0.50;;;20.00;57.10;;;;;;5017871;28;20029;-71
2023/11/08 06:25:32;;;;;;;0.80;0.60;;;20.00;57.20;;;;;;5016546;28;20112;-71
2023/11/08 06:27:59;;;;;;;0.50;0.50;;;20.00;57.20;;;;;;5016078;28;20044;-69
2023/11/08 06:30:25;;;;;;;0.50;0.50;;;20.00;57.20;;;;;;5020834;28;20540;-70
2023/11/08 06:32:50;;;;;;;1.25;0.57;;;20.00;57.20;;;;;;5019032;28;20151;-71
2023/11/08 06:35:16;;;;;;;0.65;0.50;;;19.90;57.10;;;;;;5019008;28;20029;-71
2023/11/08 06:37:42;;;;;;;0.85;0.50;;;20.00;57.20;;;;;;5017324;28;20033;-70
2023/11/08 06:40:09;;;;;;;0.60;0.45;;;19.90;57.20;;;;;;5017650;28;20469;-71
2023/11/08 06:42:34;;;;;;;0.98;0.60;;;19.90;57.20;;;;;;5016629;28;20097;-71
2023/11/08 06:45:00;;;;;;;0.47;0.45;;;20.00;57.20;;;;;;5019227;28;20098;-71
2023/11/08 06:47:26;;;;;;;0.98;0.57;;;19.90;57.20;;;;;;5019681;28;20025;-65
2023/11/08 06:49:52;;;;;;;0.88;0.50;;;19.90;57.20;;;;;;5019833;28;20026;-65
2023/11/08 06:52:17;;;;;;;0.60;0.43;;;19.90;57.20;;;;;;5017110;28;20457;-65
2023/11/08 06:54:43;;;;;;;0.40;0.40;;;19.90;57.20;;;;;;5001852;28;20026;-65
2023/11/08 06:57:09;;;;;;;0.63;0.40;;;19.90;57.30;;;;;;5018694;28;20032;-65
2023/11/08 06:59:36;;;;;;;0.45;0.40;;;19.90;57.30;;;;;;4998196;28;20109;-65
2023/11/08 07:02:03;;;;;;;0.63;0.50;;;19.90;57.30;;;;;;5019599;28;20481;-66
2023/11/08 07:04:28;;;;;;;1.02;0.60;;;19.90;57.80;;;;;;5034031;28;20036;-65
2023/11/08 07:06:54;;;;;;;0.75;0.50;;;19.90;57.30;;;;;;5032229;28;20033;-66
2023/11/08 07:09:20;;;;;;;0.60;0.50;;;19.90;57.30;;;;;;5022046;28;20061;-66
2023/11/08 07:11:47;;;;;;;0.73;0.50;;;19.90;57.30;;;;;;5038284;28;20453;-67
2023/11/08 07:14:13;;;;;;;1.05;0.60;;;19.90;57.30;;;;;;5023919;28;20152;-65
2023/11/08 07:16:39;;;;;;;0.90;0.60;;;19.90;57.30;;;;;;5021562;28;20128;-65
2023/11/08 07:19:05;;;;;;;0.75;0.60;;;19.90;57.30;;;;;;5019952;28;20068;-65
2023/11/08 07:21:30;;;;;;;0.68;0.50;;;19.90;57.30;;;;;;5019070;28;20486;-66
2023/11/08 07:23:57;;;;;;;0.68;0.55;;;19.90;57.30;;;;;;5021237;28;20068;-66
2023/11/08 07:26:23;;;;;;;0.70;0.45;;;19.90;57.40;;;;;;5023848;28;20478;-70
2023/11/08 07:28:49;;;;;;;0.57;0.50;;;19.90;57.40;;;;;;5022713;28;20064;-71
2023/11/08 07:31:15;;;;;;;0.60;0.50;;;19.90;57.40;;;;;;5024219;28;20021;-71
2023/11/08 07:33:42;;;;;;;0.73;0.60;;;19.80;57.30;;;;;;5022366;28;20445;-71
2023/11/08 07:36:08;;;;;;;0.80;0.60;;;19.90;57.40;;;;;;5020145;28;20087;-71
2023/11/08 07:38:33;;;;;;;1.25;0.63;;;19.80;57.30;;;;;;5038729;28;20029;-71
2023/11/08 07:41:01;;;;;;;1.15;0.50;;;19.80;57.30;;;;;;5021994;28;20097;-71
2023/11/08 07:43:27;;;;;;;0.50;0.50;;;19.90;57.40;;;;;;5019859;28;20554;-71
2023/11/08 07:45:53;;;;;;;0.50;0.47;;;19.90;57.40;;;;;;5021440;28;20029;-71
2023/11/08 07:48:19;;;;;;;0.88;0.60;;;19.80;57.40;;;;;;5024090;28;20386;-71
2023/11/08 07:50:44;;;;;;;0.60;0.60;;;19.80;57.40;;;;;;5022787;28;20029;-71
2023/11/08 07:53:10;;;;;;;0.77;0.60;;;19.80;57.40;;;;;;5021612;28;20030;-71
2023/11/08 07:55:36;;;;;;;0.93;0.70;;;19.80;57.30;;;;;;5022561;28;20032;-71
2023/11/08 07:58:01;;;;;;;0.95;0.57;;;19.80;57.30;;;;;;5019390;28;20026;-71
2023/11/08 08:00:27;;;;;;;0.90;0.60;;;19.90;57.40;;;;;;5022399;28;20117;-71
2023/11/08 08:02:53;;;;;;;1.05;0.60;;;19.80;57.80;;;;;;5022452;28;20033;-71
2023/11/08 08:05:19;;;;;;;0.60;0.50;;;19.80;57.40;;;;;;5022074;28;20033;-71
2023/11/08 08:07:45;;;;;;;0.80;0.60;;;19.80;57.40;;;;;;5017841;28;20117;-67
2023/11/08 08:10:12;;;;;;;0.60;0.60;;;19.80;57.30;;;;;;5021418;28;20149;-65
2023/11/08 08:12:41;;;;;;;1.10;0.65;;;19.80;57.40;;;;;;5020573;28;20101;-65
2023/11/08 08:15:07;;;;;;;1.35;0.70;;;19.80;57.40;;;;;;5022376;28;20485;-66
2023/11/08 08:17:34;;;;;;;0.80;0.60;;;19.80;57.30;;;;;;5021444;28;20061;-65
2023/11/08 08:20:04;;;;;;;0.75;0.63;;;19.80;57.40;;;;;;5017931;28;20030;-66
2023/11/08 08:22:31;;;;;;;0.57;0.40;;;19.80;57.40;;;;;;5019462;28;20032;-66
2023/11/08 08:24:57;;;;;;;0.57;0.57;;;19.80;57.40;;;;;;5020123;28;20105;-66
2023/11/08 08:27:24;;;;;;;0.50;0.50;;;19.80;57.40;;;;;;5021759;28;20046;-66
2023/11/08 08:29:49;;;;;;;0.98;0.60;;;19.80;57.40;;;;;;5020181;28;20040;-66
2023/11/08 08:32:15;;;;;;;0.90;0.60;;;19.80;57.40;;;;;;5021500;28;20030;-65
2023/11/08 08:34:41;;;;;;;0.98;0.60;;;19.80;57.40;;;;;;5020925;28;20041;-65
2023/11/08 08:37:07;;;;;;;1.17;0.60;;;19.80;57.40;;;;;;5019168;28;20331;-71
2023/11/08 08:39:32;;;;;;;0.70;0.50;;;19.80;57.40;;;;;;5021826;28;20108;-70
2023/11/08 08:41:59;;;;;;;0.82;0.50;;;19.80;57.40;;;;;;5021494;28;20037;-71
2023/11/08 08:44:25;;;;;;;0.70;0.50;;;19.80;57.40;;;;;;5020721;28;20497;-71
2023/11/08 08:46:51;;;;;;;0.82;0.68;;;19.80;57.40;;;;;;5017789;28;20025;-71
2023/11/08 08:49:17;;;;;;;0.52;0.40;;;19.80;57.40;;;;;;5021194;28;20029;-71
2023/11/08 08:51:43;;;;;;;0.80;0.50;;;19.80;57.40;;;;;;5019196;28;20018;-71
2023/11/08 08:54:09;;;;;;;0.50;0.50;;;19.80;57.40;;;;;;5036964;28;20022;-70
2023/11/08 08:56:35;;;;;;;0.80;0.60;;;19.80;57.40;;;;;;5019345;28;20022;-71
2023/11/08 08:59:00;;;;;;;1.10;0.50;;;19.80;57.40;;;;;;5021818;28;20392;-71
2023/11/08 09:01:26;;;;;;;0.88;0.60;;;19.80;57.50;;;;;;5019482;28;20033;-70
2023/11/08 09:03:52;;;;;;;1.73;0.63;;;19.80;57.40;;;;;;5022749;28;20384;-70
2023/11/08 09:06:21;;;;;;;0.70;0.60;;;19.80;57.50;;;;;;5021883;28;20454;-70
2023/11/08 09:08:47;;;;;;;0.70;0.50;;;19.80;57.40;;;;;;5019080;28;20029;-67
2023/11/08 09:11:13;;;;;;;1.10;0.70;;;19.80;57.40;;;;;;5021635;28;20076;-66
2023/11/08 09:13:39;;;;;;;0.80;0.60;;;19.80;57.50;;;;;;5019917;28;20030;-66
2023/11/08 09:16:09;;;;;;;0.73;0.50;;;19.80;57.50;;;;;;5018210;28;20453;-66
2023/11/08 09:18:35;;;;;;;1.00;0.50;;;19.80;57.50;;;;;;5018129;28;20080;-68
2023/11/08 09:21:01;;;;;;;0.68;0.50;;;19.80;57.50;;;;;;5019000;28;20033;-68
2023/11/08 09:23:31;;;;;;;0.80;0.65;;;19.70;57.40;;;;;;5017439;28;20389;-68
2023/11/08 09:25:57;;;;;;;;;;;19.70;57.50;;;;;;5021180;28;20029;-68
2023/11/08 09:28:23;;;;;;;0.73;0.60;;;19.80;57.50;;;;;;5020578;28;19910;-68
2023/11/08 09:30:51;;;;;;;1.10;0.73;;;19.80;57.50;;;;;;5019253;28;20017;-68
2023/11/08 09:33:16;;;;;;;0.80;0.60;;;19.80;57.50;;;;;;5021171;28;20124;-68
2023/11/08 09:35:42;;;;;;;0.88;0.70;;;19.70;57.50;;;;;;5019831;28;20141;-68
2023/11/08 09:38:07;;;;;;;1.02;0.70;;;19.80;57.50;;;;;;5017425;28;20045;-68
2023/11/08 09:40:33;;;;;;;0.82;0.60;;;19.80;57.50;;;;;;5022994;28;20033;-68
2023/11/08 09:43:00;;;;;;;1.05;0.60;;;19.70;57.50;;;;;;5017092;28;20021;-68
2023/11/08 09:45:30;;;;;;;0.77;0.57;;;19.70;57.50;;;;;;5020258;28;20029;-68
2023/11/08 09:47:56;;;;;;;1.27;0.68;;;19.70;57.50;;;;;;5020281;28;20040;-70
2023/11/08 09:50:23;;;;;;;0.50;0.50;;;19.80;57.50;;;;;;5014574;28;20041;-71
2023/11/08 09:52:50;;;;;;;1.15;0.70;;;19.70;57.50;;;;;;5001812;28;20026;-71
2023/11/08 09:55:17;;;;;;;1.13;0.70;;;19.70;57.50;;;;;;5020860;28;20521;-71
2023/11/08 09:57:44;;;;;;;0.70;0.60;;;19.70;57.50;;;;;;5016651;28;20105;-70
2023/11/08 10:00:10;;;;;;;1.25;0.60;;;19.70;57.50;;;;;;5017671;28;20517;-71
2023/11/08 10:02:37;;;;;;;0.57;0.57;;;19.70;57.50;;;;;;5020574;28;20431;-71
2023/11/08 10:05:06;;;;;;;0.90;0.60;;;19.70;57.50;;;;;;5033248;28;20084;-70
2023/11/08 10:07:32;;;;;;;1.40;0.70;;;19.70;58.00;;;;;;5019609;28;20034;-70
2023/11/08 10:09:58;;;;;;;0.90;0.55;;;19.70;57.50;;;;;;5017939;28;20034;-71
2023/11/08 10:12:25;;;;;;;1.08;0.60;;;19.70;58.00;;;;;;5018834;28;20036;-70
2023/11/08 10:15:03;;;;;;;1.00;0.70;;;19.70;57.50;;;;;;5034431;28;20346;-71
2023/11/08 10:17:40;;;;;;;0.70;0.60;;;19.70;57.40;;;;;;5018704;28;20388;-66
2023/11/08 10:20:11;;;;;;;0.60;0.60;;;19.70;57.50;;;;;;5020645;28;20030;-66
2023/11/08 10:22:37;;;;;;;0.82;0.50;;;19.70;57.50;;;;;;5016392;28;20029;-66
2023/11/08 10:25:04;;;;;;;0.82;0.60;;;19.70;57.40;;;;;;5019852;28;20029;-66
2023/11/08 10:27:32;;;;;;;0.75;0.50;;;19.70;57.50;;;;;;5019325;28;20513;-71
2023/11/08 10:30:20;;;;;;;0.75;0.50;;;19.70;57.40;;;;;;5018624;28;20026;-70
2023/11/08 10:32:47;;;;;;;0.73;0.60;;;19.70;57.50;;;;;;5034757;28;20029;-70
2023/11/08 10:35:21;;;;;;;0.52;0.50;;;19.70;57.40;;;;;;5018932;28;20022;-71
2023/11/08 10:37:48;;;;;;;0.70;0.60;;;19.70;57.50;;;;;;5017773;28;20080;-71
2023/11/08 10:40:14;;;;;;;0.70;0.50;;;19.70;57.40;;;;;;5019585;28;20049;-71
2023/11/08 10:42:48;;;;;;;1.05;0.70;;;19.70;57.40;;;;;;5019054;28;20409;-70
2023/11/08 10:45:14;;;;;;;1.10;0.60;;;19.70;57.40;;;;;;5018457;28;20054;-70
2023/11/08 10:47:40;;;;;;;0.50;0.50;;;19.70;57.40;;;;;;5019747;28;20033;-71
2023/11/08 10:50:08;;;;;;;0.93;0.73;;;19.70;57.40;;;;;;5017708;28;20057;-70
2023/11/08 10:52:35;;;;;;;0.57;0.50;;;19.70;57.40;;;;;;5017758;28;20027;-70
2023/11/08 10:55:04;;;;;;;0.60;0.60;;;19.70;57.40;;;;;;5004730;28;20116;-70
2023/11/08 10:57:33;;;;;;;0.90;0.70;;;19.70;57.30;;;;;;5017354;28;20038;-69
2023/11/08 11:00:07;;;;;;;0.70;0.60;;;19.70;57.40;;;;;;5018980;28;20068;-69
2023/11/08 11:02:45;;;;;;;1.13;0.60;;;19.70;57.30;;;;;;5018404;28;20029;-69
2023/11/08 11:05:14;;;;;;;0.88;0.65;;;19.70;57.40;;;;;;5018342;28;20038;-69
2023/11/08 11:07:42;;;;;;;0.52;0.52;;;19.70;57.40;;;;;;5017752;28;20477;-69
2023/11/08 11:10:13;;;;;;;1.00;0.70;;;19.70;57.40;;;;;;5016221;28;20545;-69
2023/11/08 11:12:38;;;;;;;0.70;0.55;;;19.70;57.40;;;;;;5018039;28;20115;-69
2023/11/08 11:15:11;;;;;;;0.60;0.60;;;19.70;57.40;;;;;;5035120;28;20021;-69
2023/11/08 11:17:44;;;;;;;0.70;0.60;;;19.70;57.40;;;;;;5019024;28;20060;-69
2023/11/08 11:20:14;;;;;;;1.13;0.63;;;19.70;57.40;;;;;;5017450;28;20037;-69
2023/11/08 11:22:41;;;;;;;1.45;0.68;;;19.70;57.40;;;;;;5012987;28;20048;-69
2023/11/08 11:25:09;;;;;;;0.93;0.60;;;19.70;57.40;;;;;;5029901;28;20061;-69
2023/11/08 11:27:40;;;;;;;1.27;0.70;;;19.60;57.30;;;;;;5018657;28;20084;-69
2023/11/08 11:30:18;;;;;;;0.60;0.60;;;19.70;57.40;;;;;;5017757;28;20077;-69
2023/11/08 11:32:47;;;;;;;0.68;0.63;;;19.70;57.40;;;;;;5020147;28;20355;-69
2023/11/08 11:35:16;;;;;;;0.60;0.60;;;19.70;57.40;;;;;;5017657;28;20097;-69
2023/11/08 11:37:43;;;;;;;0.90;0.60;;;19.70;57.30;;;;;;5018105;28;20482;-68
2023/11/08 11:40:09;;;;;;;0.52;0.50;;;19.70;57.40;;;;;;5017989;28;20025;-67
2023/11/08 11:42:35;;;;;;;0.80;0.60;;;19.70;57.40;;;;;;5017603;28;20136;-66
2023/11/08 11:45:08;;;;;;;1.20;0.60;;;19.70;57.40;;;;;;5015459;28;20465;-66
2023/11/08 11:47:36;;;;;;;0.50;0.50;;;19.70;57.30;;;;;;5019688;28;20033;-66
2023/11/08 11:50:07;;;;;;;0.73;0.55;;;19.70;57.30;;;;;;4999602;28;20022;-66
2023/11/08 11:52:34;;;;;;;0.77;0.60;;;19.70;57.30;;;;;;5016914;28;20475;-66
2023/11/08 11:55:00;;;;;;;1.33;0.80;;;19.70;57.30;;;;;;5002615;28;20504;-67
2023/11/08 11:57:29;;;;;;;1.45;0.82;;;19.70;57.30;;;;;;5006086;28;20036;-66
2023/11/08 11:59:58;;;;;;;0.50;0.50;;;19.70;57.30;;;;;;5021358;28;20030;-66
2023/11/08 12:02:27;;;;;;;0.80;0.60;;;19.70;57.30;;;;;;5022568;28;20264;-66
2023/11/08 12:04:55;;;;;;;1.17;0.77;;;19.70;57.30;;;;;;5020651;28;20436;-66
2023/11/08 12:07:20;;;;;;;1.15;0.75;;;19.70;57.30;;;;;;5022103;28;20091;-67
2023/11/08 12:09:47;;;;;;;1.45;0.70;;;19.60;57.20;;;;;;5021485;28;20374;-66
2023/11/08 12:12:13;;;;;;;0.95;0.70;;;19.70;57.30;;;;;;5021600;28;20033;-66
2023/11/08 12:14:47;;;;;;;0.90;0.65;;;19.70;57.20;;;;;;5022717;28;20021;-65
2023/11/08 12:17:13;;;;;;;0.60;0.52;;;19.70;57.20;;;;;;5021677;28;20585;-66
2023/11/08 12:19:40;;;;;;;0.65;0.60;;;19.70;57.20;;;;;;5003006;28;20460;-65
2023/11/08 12:22:06;;;;;;;0.80;0.60;;;19.70;57.20;;;;;;5021347;28;20034;-66
2023/11/08 12:24:33;;;;;;;0.80;0.60;;;19.70;57.10;;;;;;5020952;28;20045;-66
2023/11/08 12:27:02;;;;;;;0.70;0.50;;;19.70;57.10;;;;;;5022397;28;20478;-66
2023/11/08 12:29:28;;;;;;;1.20;0.70;;;19.70;57.10;;;;;;5019363;28;20013;-65
2023/11/08 12:31:54;;;;;;;1.15;0.60;;;19.70;57.10;;;;;;5037736;28;20088;-66
2023/11/08 12:34:23;;;;;;;0.50;0.50;;;19.70;57.10;;;;;;5023719;28;20401;-66
2023/11/08 12:36:49;;;;;;;1.42;0.85;;;19.70;57.10;;;;;;5006977;28;20109;-66
2023/11/08 12:39:20;;;;;;;0.75;0.68;;;19.70;57.10;;;;;;5019860;28;20112;-70
2023/11/08 12:41:49;;;;;;;0.63;0.60;;;19.70;57.10;;;;;;5017871;28;20083;-70
2023/11/08 12:44:20;;;;;;;0.60;0.60;;;19.70;57.10;;;;;;5021205;28;20032;-70
2023/11/08 12:46:53;;;;;;;0.80;0.70;;;19.70;57.10;;;;;;5022269;28;20032;-71